createdAt,value
2018-12-23T00:00:49.510Z,60.45
2018-12-23T00:03:51.343Z,60.59
2018-12-23T00:06:53.061Z,60.28
2018-12-23T00:09:54.817Z,60.23
2018-12-23T00:12:56.567Z,60.11
2018-12-23T00:15:58.476Z,59.76
2018-12-23T00:19:00.258Z,59.89
2018-12-23T00:22:02.090Z,60.08
2018-12-23T00:25:03.958Z,60.06
2018-12-23T00:28:05.716Z,60.21
2018-12-23T00:31:07.498Z,60.16
2018-12-23T00:34:09.403Z,60.37
2018-12-23T00:37:11.169Z,60.61
2018-12-23T00:40:12.938Z,60.90
2018-12-23T00:43:14.704Z,61.02
2018-12-23T00:46:16.533Z,60.92
2018-12-23T00:49:18.336Z,60.74
2018-12-23T00:52:20.150Z,60.43
2018-12-23T00:55:22.067Z,60.46
2018-12-23T00:58:23.921Z,60.15
2018-12-23T01:01:25.682Z,60.17
2018-12-23T01:04:27.403Z,60.34
2018-12-23T01:07:29.118Z,60.22
2018-12-23T01:10:30.969Z,60.14
2018-12-23T01:13:32.736Z,59.89
2018-12-23T01:16:34.680Z,60.42
2018-12-23T01:19:36.396Z,60.43
2018-12-23T01:22:38.161Z,60.52
2018-12-23T01:25:39.947Z,60.19
2018-12-23T01:28:41.758Z,60.36
2018-12-23T01:31:43.527Z,60.23
2018-12-23T01:34:45.353Z,60.52
2018-12-23T01:37:47.111Z,60.68
2018-12-23T01:40:48.915Z,61.00
2018-12-23T01:43:50.612Z,60.82
2018-12-23T01:46:52.415Z,60.96
2018-12-23T01:49:54.189Z,61.20
2018-12-23T01:52:55.920Z,60.81
2018-12-23T01:55:57.707Z,60.93
2018-12-23T01:58:59.440Z,60.87
2018-12-23T02:02:01.199Z,60.74
2018-12-23T02:05:03.245Z,60.57
2018-12-23T02:08:06.087Z,60.66
2018-12-23T02:11:07.882Z,60.54
2018-12-23T02:14:09.591Z,60.08
2018-12-23T02:17:11.547Z,59.88
2018-12-23T02:20:13.291Z,60.08
2018-12-23T02:23:15.112Z,60.12
2018-12-23T02:26:16.868Z,60.09
2018-12-23T02:29:18.676Z,60.10
2018-12-23T02:32:20.473Z,60.35
2018-12-23T02:35:22.279Z,60.59
2018-12-23T02:38:24.118Z,60.49
2018-12-23T02:41:31.559Z,60.93
2018-12-23T02:44:30.069Z,60.90
2018-12-23T02:47:31.945Z,60.93
2018-12-23T02:50:33.845Z,60.91
2018-12-23T02:53:35.676Z,60.67
2018-12-23T02:56:37.512Z,61.07
2018-12-23T02:59:39.320Z,60.89
2018-12-23T03:02:41.327Z,60.91
2018-12-23T03:05:43.087Z,60.99
2018-12-23T03:08:44.926Z,60.83
2018-12-23T03:11:46.730Z,60.88
2018-12-23T03:14:48.532Z,60.83
2018-12-23T03:17:50.426Z,60.73
2018-12-23T03:20:52.210Z,60.66
2018-12-23T03:23:53.958Z,60.70
2018-12-23T03:26:55.733Z,60.39
2018-12-23T03:29:58.553Z,60.49
2018-12-23T03:33:00.304Z,60.54
2018-12-23T03:36:02.143Z,60.69
2018-12-23T03:39:05.139Z,60.84
2018-12-23T03:42:07.013Z,60.71
2018-12-23T03:45:08.776Z,60.77
2018-12-23T03:48:10.694Z,60.82
2018-12-23T03:51:12.692Z,60.99
2018-12-23T03:54:14.579Z,61.01
2018-12-23T03:57:16.463Z,61.13
2018-12-23T04:00:18.293Z,61.06
2018-12-23T04:03:20.106Z,61.26
2018-12-23T04:06:24.739Z,61.16
2018-12-23T04:09:25.789Z,61.25
2018-12-23T04:12:27.548Z,61.45
2018-12-23T04:15:29.479Z,61.43
2018-12-23T04:18:31.393Z,61.35
2018-12-23T04:21:33.168Z,61.42
2018-12-23T04:24:34.914Z,61.50
2018-12-23T04:27:36.808Z,61.36
2018-12-23T04:30:38.568Z,61.51
2018-12-23T04:33:40.363Z,61.62
2018-12-23T04:36:42.201Z,61.45
2018-12-23T04:39:44.107Z,61.59
2018-12-23T04:42:45.880Z,61.46
2018-12-23T04:45:47.750Z,61.49
2018-12-23T04:48:49.623Z,61.21
2018-12-23T04:51:51.505Z,61.30
2018-12-23T04:54:53.291Z,61.50
2018-12-23T04:57:55.106Z,61.32
2018-12-23T05:00:56.931Z,61.06
2018-12-23T05:03:58.767Z,61.40
2018-12-23T05:07:00.609Z,61.05
2018-12-23T05:10:02.575Z,61.08
2018-12-23T05:13:04.447Z,61.39
2018-12-23T05:16:06.203Z,61.23
2018-12-23T05:19:08.209Z,61.12
2018-12-23T05:22:09.962Z,61.38
2018-12-23T05:25:12.057Z,61.31
2018-12-23T05:28:53.192Z,61.48
2018-12-23T05:31:55.297Z,61.69
2018-12-23T05:34:57.397Z,61.73
2018-12-23T05:37:59.596Z,61.72
2018-12-23T05:41:01.665Z,61.61
2018-12-23T05:44:04.167Z,61.51
2018-12-23T05:47:06.393Z,61.44
2018-12-23T05:50:08.546Z,61.36
2018-12-23T05:53:10.683Z,61.31
2018-12-23T05:56:12.835Z,61.30
2018-12-23T05:59:14.996Z,61.29
2018-12-23T06:02:17.151Z,61.38
2018-12-23T06:05:19.224Z,61.41
2018-12-23T06:08:21.346Z,61.35
2018-12-23T06:11:23.428Z,61.32
2018-12-23T06:14:25.641Z,61.29
2018-12-23T06:17:27.761Z,61.29
2018-12-23T06:20:29.969Z,61.20
2018-12-23T06:23:32.059Z,61.13
2018-12-23T06:26:34.163Z,61.13
2018-12-23T06:29:36.258Z,61.00
2018-12-23T06:32:38.343Z,60.90
2018-12-23T06:35:40.394Z,60.93
2018-12-23T06:38:42.521Z,60.92
2018-12-23T06:41:44.530Z,61.00
2018-12-23T06:44:46.687Z,61.09
2018-12-23T06:47:48.920Z,61.13
2018-12-23T06:50:51.016Z,61.26
2018-12-23T06:53:53.228Z,61.25
2018-12-23T06:56:55.298Z,61.10
2018-12-23T06:59:57.443Z,61.21
2018-12-23T07:02:59.564Z,61.27
2018-12-23T07:06:01.764Z,61.38
2018-12-23T07:09:04.934Z,61.50
2018-12-23T07:12:07.018Z,61.58
2018-12-23T07:15:09.120Z,61.65
2018-12-23T07:18:11.229Z,61.60
2018-12-23T07:21:13.484Z,61.74
2018-12-23T07:24:15.668Z,61.86
2018-12-23T07:27:17.878Z,61.97
2018-12-23T07:30:20.011Z,61.85
2018-12-23T07:33:22.327Z,61.96
2018-12-23T07:36:24.448Z,62.08
2018-12-23T07:39:26.495Z,61.89
2018-12-23T07:42:28.556Z,61.94
2018-12-23T07:45:30.743Z,62.03
2018-12-23T07:48:32.788Z,61.91
2018-12-23T07:51:34.943Z,61.92
2018-12-23T07:54:37.124Z,61.88
2018-12-23T07:57:39.299Z,61.71
2018-12-23T08:00:41.469Z,61.65
2018-12-23T08:03:43.533Z,61.56
2018-12-23T08:06:45.719Z,61.49
2018-12-23T08:09:48.067Z,61.43
2018-12-23T08:12:50.176Z,61.44
2018-12-23T08:15:52.230Z,61.19
2018-12-23T08:18:54.350Z,61.07
2018-12-23T08:21:56.366Z,60.90
2018-12-23T08:24:58.536Z,60.89
2018-12-23T08:28:00.615Z,60.70
2018-12-23T08:31:02.744Z,60.67
2018-12-23T08:34:04.811Z,60.53
2018-12-23T08:37:06.877Z,60.43
2018-12-23T08:40:10.130Z,60.40
2018-12-23T08:43:12.217Z,60.44
2018-12-23T08:46:14.314Z,60.36
2018-12-23T08:49:16.423Z,60.72
2018-12-23T08:52:18.551Z,60.93
2018-12-23T08:55:20.579Z,60.84
2018-12-23T08:58:22.749Z,60.79
2018-12-23T09:01:24.894Z,60.65
2018-12-23T09:04:27.000Z,60.18
2018-12-23T09:07:29.132Z,59.71
2018-12-23T09:10:31.198Z,59.07
2018-12-23T09:13:33.283Z,58.60
2018-12-23T09:16:35.378Z,58.57
2018-12-23T09:19:37.608Z,58.76
2018-12-23T09:22:39.729Z,58.94
2018-12-23T09:25:41.867Z,58.99
2018-12-23T09:28:43.982Z,59.00
2018-12-23T09:31:46.128Z,59.00
2018-12-23T09:34:48.198Z,59.18
2018-12-23T09:37:50.301Z,59.32
2018-12-23T09:40:52.439Z,59.36
2018-12-23T09:43:54.534Z,59.35
2018-12-23T09:46:56.841Z,59.21
2018-12-23T09:49:58.966Z,59.01
2018-12-23T09:53:01.073Z,58.73
2018-12-23T09:56:03.245Z,58.53
2018-12-23T09:59:05.372Z,58.39
2018-12-23T10:02:07.496Z,58.36
2018-12-23T10:05:09.562Z,58.34
2018-12-23T10:08:11.785Z,58.42
2018-12-23T10:11:13.892Z,58.60
2018-12-23T10:14:16.049Z,58.73
2018-12-23T10:17:18.103Z,58.77
2018-12-23T10:20:20.328Z,58.88
2018-12-23T10:23:22.379Z,58.97
2018-12-23T10:26:24.536Z,58.96
2018-12-23T10:29:28.467Z,58.83
2018-12-23T10:32:30.683Z,58.73
2018-12-23T10:35:32.893Z,58.58
2018-12-23T10:38:34.919Z,58.59
2018-12-23T10:41:37.019Z,58.60
2018-12-23T10:44:39.370Z,58.63
2018-12-23T10:47:41.743Z,58.72
2018-12-23T10:50:43.888Z,58.86
2018-12-23T10:53:46.030Z,59.10
2018-12-23T10:56:48.110Z,59.31
2018-12-23T10:59:50.398Z,59.39
2018-12-23T11:02:52.558Z,59.42
2018-12-23T11:05:54.661Z,59.33
2018-12-23T11:08:56.791Z,59.24
2018-12-23T11:11:58.875Z,59.24
2018-12-23T11:15:01.046Z,59.43
2018-12-23T11:18:04.161Z,59.56
2018-12-23T11:21:06.260Z,59.64
2018-12-23T11:24:08.336Z,59.61
2018-12-23T11:27:10.450Z,59.44
2018-12-23T11:30:12.632Z,59.51
2018-12-23T11:33:14.831Z,59.50
2018-12-23T11:36:16.853Z,59.53
2018-12-23T11:39:18.944Z,59.31
2018-12-23T11:42:21.088Z,59.07
2018-12-23T11:45:23.211Z,58.92
2018-12-23T11:48:25.485Z,58.90
2018-12-23T11:51:27.716Z,58.99
2018-12-23T11:54:29.788Z,59.21
2018-12-23T11:57:31.910Z,59.41
2018-12-23T12:00:34.030Z,59.78
2018-12-23T12:03:36.280Z,60.09
2018-12-23T12:06:38.406Z,60.30
2018-12-23T12:09:40.557Z,60.23
2018-12-23T12:12:42.708Z,60.15
2018-12-23T12:15:44.964Z,60.18
2018-12-23T12:18:47.084Z,60.08
2018-12-23T12:21:49.328Z,59.89
2018-12-23T12:24:51.475Z,59.84
2018-12-23T12:27:53.604Z,59.88
2018-12-23T12:30:55.724Z,59.83
2018-12-23T12:33:57.894Z,59.72
2018-12-23T12:37:00.074Z,59.76
2018-12-23T12:40:02.201Z,59.87
2018-12-23T12:43:04.247Z,59.95
2018-12-23T12:46:06.350Z,59.63
2018-12-23T12:49:08.545Z,59.54
2018-12-23T12:52:10.735Z,59.30
2018-12-23T12:55:12.867Z,59.09
2018-12-23T12:58:14.902Z,58.95
2018-12-23T13:01:17.010Z,58.96
2018-12-23T13:04:19.205Z,58.91
2018-12-23T13:07:21.405Z,58.78
2018-12-23T13:10:23.551Z,58.76
2018-12-23T13:13:25.850Z,58.69
2018-12-23T13:16:27.938Z,58.54
2018-12-23T13:19:30.084Z,58.90
2018-12-23T13:22:32.273Z,59.22
2018-12-23T13:25:34.499Z,59.38
2018-12-23T13:28:36.619Z,59.48
2018-12-23T13:31:38.731Z,59.31
2018-12-23T13:34:40.892Z,59.30
2018-12-23T13:37:43.033Z,59.16
2018-12-23T13:40:51.472Z,59.07
2018-12-23T13:44:09.681Z,58.89
2018-12-23T13:47:27.244Z,59.07
2018-12-23T13:50:52.912Z,59.25
2018-12-23T13:54:17.198Z,59.34
2018-12-23T13:57:38.453Z,59.51
2018-12-23T14:01:01.106Z,59.55
2018-12-23T14:04:15.643Z,59.53
2018-12-23T14:07:41.265Z,59.48
2018-12-23T14:10:52.953Z,59.45
2018-12-23T14:13:55.108Z,59.48
2018-12-23T14:16:57.291Z,59.43
2018-12-23T14:19:59.373Z,59.35
2018-12-23T14:23:01.487Z,59.20
2018-12-23T14:26:03.686Z,59.16
2018-12-23T14:29:05.893Z,59.22
2018-12-23T14:32:08.068Z,59.20
2018-12-23T14:35:10.157Z,59.23
2018-12-23T14:38:12.252Z,59.17
2018-12-23T14:41:14.390Z,59.22
2018-12-23T14:44:16.516Z,59.22
2018-12-23T14:47:18.696Z,59.28
2018-12-23T14:50:20.798Z,59.24
2018-12-23T14:53:22.913Z,59.06
2018-12-23T14:56:25.128Z,59.16
2018-12-23T14:59:27.300Z,59.28
2018-12-23T15:02:29.455Z,59.23
2018-12-23T15:05:31.669Z,59.21
2018-12-23T15:08:33.847Z,59.09
2018-12-23T15:11:35.975Z,59.07
2018-12-23T15:14:38.161Z,58.96
2018-12-23T15:17:41.473Z,58.95
2018-12-23T15:20:43.598Z,58.90
2018-12-23T15:23:45.772Z,58.95
2018-12-23T15:26:47.967Z,58.89
2018-12-23T15:29:50.159Z,59.22
2018-12-23T15:32:52.231Z,59.62
2018-12-23T15:35:54.353Z,59.84
2018-12-23T15:38:56.472Z,59.74
2018-12-23T15:41:58.720Z,59.45
2018-12-23T15:45:00.906Z,59.26
2018-12-23T15:48:02.962Z,59.45
2018-12-23T15:51:05.028Z,59.49
2018-12-23T15:54:07.154Z,59.54
2018-12-23T15:57:09.334Z,59.51
2018-12-23T16:00:11.450Z,59.65
2018-12-23T16:03:13.639Z,59.68
2018-12-23T16:06:15.754Z,59.74
2018-12-23T16:09:18.019Z,59.67
2018-12-23T16:12:20.144Z,59.48
2018-12-23T16:15:22.289Z,59.01
2018-12-23T16:18:24.371Z,58.74
2018-12-23T16:21:26.435Z,58.61
2018-12-23T16:24:28.477Z,58.49
2018-12-23T16:27:30.860Z,58.39
2018-12-23T16:30:32.956Z,58.32
2018-12-23T16:33:35.086Z,58.25
2018-12-23T16:36:37.233Z,58.23
2018-12-23T16:39:39.303Z,58.11
2018-12-23T16:42:41.485Z,58.09
2018-12-23T16:45:43.638Z,58.12
2018-12-23T16:48:45.770Z,58.19
2018-12-23T16:51:47.841Z,58.09
2018-12-23T16:54:49.954Z,58.04
2018-12-23T16:57:52.115Z,58.06
2018-12-23T17:00:54.293Z,58.21
2018-12-23T17:03:56.354Z,58.15
2018-12-23T17:06:58.477Z,58.15
2018-12-23T17:10:07.856Z,58.02
2018-12-23T17:13:04.674Z,57.95
2018-12-23T17:16:06.820Z,57.87
2018-12-23T17:19:09.004Z,57.77
2018-12-23T17:22:11.144Z,57.72
2018-12-23T17:25:13.314Z,57.81
2018-12-23T17:28:15.491Z,57.92
2018-12-23T17:31:18.690Z,58.00
2018-12-23T17:34:20.809Z,58.06
2018-12-23T17:37:23.016Z,58.04
2018-12-23T17:40:25.063Z,58.00
2018-12-23T17:43:27.628Z,57.92
2018-12-23T17:46:29.673Z,57.84
2018-12-23T17:49:31.802Z,57.86
2018-12-23T17:52:33.977Z,57.96
2018-12-23T17:55:36.084Z,57.91
2018-12-23T17:58:38.278Z,57.91
2018-12-23T18:01:40.395Z,57.94
2018-12-23T18:04:42.519Z,58.12
2018-12-23T18:07:44.623Z,58.04
2018-12-23T18:10:46.892Z,58.07
2018-12-23T18:13:49.050Z,58.19
2018-12-23T18:16:51.173Z,58.21
2018-12-23T18:19:53.239Z,58.26
2018-12-23T18:22:55.370Z,58.35
2018-12-23T18:25:57.509Z,58.57
2018-12-23T18:28:59.720Z,58.73
2018-12-23T18:32:01.830Z,58.75
2018-12-23T18:35:03.967Z,58.96
2018-12-23T18:38:07.132Z,59.08
2018-12-23T18:41:09.653Z,59.20
2018-12-23T18:44:12.015Z,59.44
2018-12-23T18:47:14.223Z,59.70
2018-12-23T18:50:16.337Z,59.79
2018-12-23T18:53:18.474Z,59.48
2018-12-23T18:56:21.579Z,59.45
2018-12-23T18:59:23.876Z,59.39
2018-12-23T19:02:27.864Z,59.32
2018-12-23T19:05:30.076Z,59.44
2018-12-23T19:08:34.747Z,59.71
2018-12-23T19:11:40.581Z,59.97
2018-12-23T19:14:51.983Z,60.28
2018-12-23T19:18:00.846Z,60.38
2018-12-23T19:21:09.337Z,60.55
2018-12-23T19:24:20.865Z,60.49
2018-12-23T19:27:29.565Z,60.28
2018-12-23T19:30:47.393Z,60.21
2018-12-23T19:33:55.900Z,59.98
2018-12-23T19:37:31.593Z,60.00
2018-12-23T19:41:06.585Z,59.94
2018-12-23T19:44:31.061Z,59.91
2018-12-23T19:47:52.086Z,59.95
2018-12-23T19:51:33.450Z,59.87
2018-12-23T19:54:48.166Z,59.75
2018-12-23T19:58:08.576Z,59.98
2018-12-23T20:01:20.199Z,59.98
2018-12-23T20:04:42.791Z,59.96
2018-12-23T20:08:07.977Z,59.91
2018-12-23T20:11:16.692Z,60.04
2018-12-23T20:14:40.438Z,59.94
2018-12-23T20:17:48.883Z,59.89
2018-12-23T20:21:03.655Z,59.84
2018-12-23T20:24:30.849Z,59.68
2018-12-23T20:27:45.566Z,59.69
2018-12-23T20:31:07.908Z,59.86
2018-12-23T20:34:13.651Z,59.74
2018-12-23T20:37:31.670Z,59.71
2018-12-23T20:41:07.487Z,59.61
2018-12-23T20:44:11.391Z,59.55
2018-12-23T20:47:37.920Z,59.56
2018-12-23T20:51:04.140Z,59.49
2018-12-23T20:54:28.194Z,59.53
2018-12-23T20:57:40.014Z,59.47
2018-12-23T21:00:48.837Z,59.46
2018-12-23T21:04:16.231Z,59.44
2018-12-23T21:07:31.176Z,59.46
2018-12-23T21:10:59.889Z,59.71
2018-12-23T21:14:28.557Z,59.82
2018-12-23T21:17:40.447Z,59.94
2018-12-23T21:20:46.132Z,60.09
2018-12-23T21:24:16.546Z,60.04
2018-12-23T21:27:42.306Z,60.00
2018-12-23T21:30:50.804Z,60.10
2018-12-23T21:34:11.772Z,60.30
2018-12-23T21:37:23.746Z,60.26
2018-12-23T21:40:44.791Z,60.10
2018-12-23T21:44:22.779Z,60.14
2018-12-23T21:47:40.642Z,60.30
2018-12-23T21:51:18.541Z,60.59
2018-12-23T21:54:27.262Z,60.65
2018-12-23T21:57:51.803Z,60.72
2018-12-23T22:01:12.666Z,60.69
2018-12-23T22:04:26.980Z,60.70
2018-12-23T22:07:47.994Z,60.76
2018-12-23T22:11:06.090Z,60.71
2018-12-23T22:14:08.143Z,60.69
2018-12-23T22:17:10.290Z,60.71
2018-12-23T22:20:12.485Z,60.54
2018-12-23T22:23:14.581Z,60.48
2018-12-23T22:26:16.709Z,60.53
2018-12-23T22:29:18.859Z,60.61
2018-12-23T22:32:21.070Z,60.67
2018-12-23T22:35:23.165Z,60.72
2018-12-23T22:38:25.379Z,60.78
2018-12-23T22:41:27.686Z,60.69
2018-12-23T22:44:29.813Z,60.62
2018-12-23T22:47:31.966Z,60.69
2018-12-23T22:50:34.069Z,60.64
2018-12-23T22:53:36.217Z,60.79
2018-12-23T22:56:38.389Z,60.95
2018-12-23T22:59:40.509Z,61.13
2018-12-23T23:02:42.708Z,61.16
2018-12-23T23:05:44.858Z,61.36
2018-12-23T23:08:47.050Z,61.48
2018-12-23T23:11:49.972Z,61.46
2018-12-23T23:14:52.387Z,61.43
2018-12-23T23:17:54.508Z,61.52
2018-12-23T23:20:56.711Z,61.50
2018-12-23T23:23:58.878Z,61.43
2018-12-23T23:27:01.044Z,61.57
2018-12-23T23:30:04.433Z,61.66
2018-12-23T23:33:06.772Z,61.68
2018-12-23T23:36:08.917Z,61.65
2018-12-23T23:39:11.036Z,61.69
2018-12-23T23:42:13.204Z,61.73
2018-12-23T23:45:15.340Z,61.72
2018-12-23T23:48:17.370Z,61.60
2018-12-23T23:51:19.475Z,61.52
2018-12-23T23:54:21.534Z,61.56
2018-12-23T23:57:23.639Z,61.68
